createdAt,value
2019-05-16T05:31:02.657Z,11.02
2019-05-16T05:33:34.537Z,10.96
2019-05-16T06:10:52.394Z,11.27
2019-05-16T06:13:24.683Z,11.26
2019-05-16T06:15:57.517Z,11.31
2019-05-16T06:18:32.221Z,11.35
2019-05-16T06:21:06.092Z,11.44
2019-05-16T06:23:40.134Z,11.57
2019-05-16T06:26:12.284Z,11.73
2019-05-16T06:28:44.339Z,11.83
2019-05-16T06:31:22.029Z,12.00
2019-05-16T06:33:55.764Z,12.10
2019-05-16T06:36:31.222Z,12.23
2019-05-16T06:39:07.007Z,12.40
2019-05-16T06:41:40.162Z,12.48
2019-05-16T06:44:14.281Z,12.62
2019-05-16T06:47:00.371Z,12.78
2019-05-16T06:49:19.814Z,12.93
2019-05-16T06:51:55.149Z,13.02
2019-05-16T06:54:29.889Z,12.94
2019-05-16T06:57:02.025Z,12.99
2019-05-16T06:59:36.332Z,13.08
2019-05-16T07:02:10.861Z,13.19
2019-05-16T07:04:42.052Z,13.28
2019-05-16T07:07:15.251Z,13.30
2019-05-16T07:10:00.168Z,13.24
2019-05-16T07:12:25.178Z,13.28
2019-05-16T07:15:01.246Z,13.25
2019-05-16T07:17:39.698Z,13.25
2019-05-16T07:20:13.162Z,13.22
2019-05-16T07:22:50.290Z,13.16
2019-05-16T07:25:31.701Z,13.23
2019-05-16T07:28:05.651Z,13.27
2019-05-16T07:30:40.698Z,13.34
2019-05-16T07:33:11.775Z,13.22
2019-05-16T07:35:43.591Z,13.29
2019-05-16T07:38:20.031Z,13.23
2019-05-16T07:40:51.598Z,13.28
2019-05-16T07:43:26.258Z,13.29
2019-05-16T07:46:00.223Z,13.35
2019-05-16T07:48:35.720Z,13.43
2019-05-16T07:51:11.043Z,13.52
2019-05-16T07:53:51.907Z,13.33
2019-05-16T07:56:36.126Z,13.54
2019-05-16T07:59:25.362Z,13.51
2019-05-16T08:02:02.963Z,13.59
2019-05-16T08:04:45.395Z,13.73
2019-05-16T08:07:25.431Z,13.83
2019-05-16T08:09:59.741Z,13.81
2019-05-16T08:12:33.021Z,13.77
2019-05-16T08:15:12.698Z,13.84
2019-05-16T08:17:51.259Z,13.70
2019-05-16T08:20:24.456Z,13.74
2019-05-16T08:23:00.907Z,13.86
2019-05-16T08:25:50.451Z,13.90
2019-05-16T08:28:24.656Z,13.94
2019-05-16T08:30:56.562Z,13.92
2019-05-16T08:33:34.777Z,13.97
2019-05-16T08:36:11.103Z,14.05
2019-05-16T08:38:47.001Z,13.87
2019-05-16T08:41:24.423Z,13.90
2019-05-16T08:44:01.230Z,13.89
2019-05-16T08:46:43.562Z,13.85
2019-05-16T08:49:16.099Z,13.84
2019-05-16T08:51:53.148Z,13.75
2019-05-16T08:54:27.247Z,13.78
2019-05-16T08:57:20.809Z,13.64
2019-05-16T08:59:44.356Z,13.65
2019-05-16T09:02:33.526Z,13.61
2019-05-16T09:05:05.163Z,13.57
2019-05-16T09:07:36.452Z,13.54
2019-05-16T09:10:42.660Z,13.48
2019-05-16T09:12:43.660Z,13.44
2019-05-16T09:15:17.059Z,13.41
2019-05-16T09:17:49.085Z,13.38
2019-05-16T09:20:21.074Z,13.29
2019-05-16T09:22:52.934Z,13.09
2019-05-16T09:25:27.429Z,13.00
2019-05-16T09:27:58.687Z,12.91
2019-05-16T09:30:30.339Z,12.86
2019-05-16T09:33:02.119Z,12.72
2019-05-16T09:35:37.020Z,12.70
2019-05-16T09:38:08.126Z,12.70
2019-05-16T09:40:39.877Z,12.72
2019-05-16T09:43:11.658Z,12.65
2019-05-16T09:45:43.400Z,12.70
2019-05-16T09:48:18.433Z,12.63
2019-05-16T09:50:49.483Z,12.71
2019-05-16T09:53:21.155Z,12.87
2019-05-16T09:55:53.155Z,12.99
2019-05-16T09:58:27.545Z,13.07
2019-05-16T10:00:59.432Z,13.02
2019-05-16T10:03:31.121Z,13.01
2019-05-16T10:06:02.963Z,13.03
2019-05-16T10:08:37.446Z,13.11
2019-05-16T10:11:09.540Z,13.21
2019-05-16T10:13:41.323Z,13.28
2019-05-16T10:16:13.077Z,13.48
2019-05-16T10:18:47.374Z,13.65
2019-05-16T10:21:20.664Z,13.66
2019-05-16T10:23:51.762Z,13.80
2019-05-16T10:26:23.546Z,13.87
2019-05-16T10:28:58.397Z,13.78
2019-05-16T10:31:41.342Z,13.65
2019-05-16T10:34:07.432Z,13.71
2019-05-16T10:36:38.747Z,13.75
2019-05-16T10:39:10.621Z,13.89
2019-05-16T10:41:42.941Z,13.90
2019-05-16T10:44:17.229Z,13.99
2019-05-16T10:46:48.502Z,14.28
2019-05-16T10:49:33.390Z,14.31
2019-05-16T10:51:54.032Z,14.33
2019-05-16T10:54:27.590Z,14.33
2019-05-16T10:56:59.460Z,14.61
2019-05-16T11:02:07.560Z,14.45
2019-05-16T11:04:53.845Z,14.45
2019-05-16T11:07:13.122Z,14.62
2019-05-16T11:09:55.785Z,14.92
2019-05-16T11:12:20.541Z,14.98
2019-05-16T11:14:51.799Z,15.09
2019-05-16T11:17:27.650Z,15.10
2019-05-16T11:19:58.409Z,14.97
2019-05-16T11:22:32.285Z,15.07
2019-05-16T11:25:20.247Z,14.94
2019-05-16T11:27:39.177Z,14.94
2019-05-16T11:30:13.579Z,14.86
2019-05-16T11:32:46.913Z,14.79
2019-05-16T11:35:19.313Z,14.82
2019-05-16T11:37:52.013Z,14.87
2019-05-16T11:40:24.414Z,14.82
2019-05-16T11:43:06.675Z,14.84
2019-05-16T11:45:29.527Z,14.97
2019-05-16T11:48:01.273Z,15.26
2019-05-16T11:50:36.988Z,15.52
2019-05-16T11:53:07.544Z,15.66
2019-05-16T11:55:51.899Z,15.66
2019-05-16T11:58:12.845Z,15.67
2019-05-16T12:00:44.626Z,15.73
2019-05-16T12:03:17.198Z,15.73
2019-05-16T12:05:49.044Z,15.99
2019-05-16T12:08:21.792Z,16.24
2019-05-16T12:10:53.866Z,16.40
2019-05-16T12:13:32.374Z,16.43
2019-05-16T12:15:59.172Z,16.30
2019-05-16T12:18:31.520Z,16.04
2019-05-16T12:21:03.269Z,15.78
2019-05-16T12:23:37.268Z,15.92
2019-05-16T12:26:10.630Z,16.07
2019-05-16T12:28:42.270Z,15.94
2019-05-16T12:31:17.127Z,15.87
2019-05-16T12:33:48.063Z,15.69
2019-05-16T12:36:21.443Z,15.63
2019-05-16T12:38:57.586Z,15.49
2019-05-16T12:41:29.376Z,15.39
2019-05-16T12:44:01.114Z,15.28
2019-05-16T12:46:32.879Z,15.01
2019-05-16T12:49:07.028Z,15.04
2019-05-16T12:51:38.255Z,15.01
2019-05-16T12:54:10.000Z,15.09
2019-05-16T12:56:41.755Z,15.13
2019-05-16T12:59:20.582Z,15.26
2019-05-16T13:01:48.264Z,15.30
2019-05-16T13:04:20.385Z,15.27
2019-05-16T13:06:52.130Z,15.26
2019-05-16T13:09:26.378Z,15.38
2019-05-16T13:11:57.822Z,15.53
2019-05-16T13:14:29.872Z,15.69
2019-05-16T13:17:01.638Z,15.72
2019-05-16T13:19:34.690Z,15.68
2019-05-16T13:22:07.693Z,15.76
2019-05-16T13:24:39.250Z,15.86
2019-05-16T13:27:11.126Z,16.03
2019-05-16T13:29:47.498Z,16.21
2019-05-16T13:32:18.074Z,16.21
2019-05-16T13:34:49.962Z,16.42
2019-05-16T13:37:23.199Z,16.65
2019-05-16T13:39:56.885Z,16.67
2019-05-16T13:42:28.787Z,16.65
2019-05-16T13:45:01.382Z,16.65
2019-05-16T13:47:33.237Z,16.51
2019-05-16T13:50:12.240Z,16.26
2019-05-16T13:52:41.636Z,16.12
2019-05-16T13:55:16.734Z,15.93
2019-05-16T13:57:48.188Z,15.88
2019-05-16T14:00:20.880Z,16.00
2019-05-16T14:02:52.441Z,15.99
2019-05-16T14:05:26.627Z,16.14
2019-05-16T14:07:57.738Z,16.19
2019-05-16T14:10:30.020Z,16.31
2019-05-16T14:13:02.214Z,16.51
2019-05-16T14:15:36.558Z,16.58
2019-05-16T14:18:07.970Z,16.71
2019-05-16T14:20:40.227Z,16.83
2019-05-16T14:23:11.989Z,16.78
2019-05-16T14:25:48.171Z,16.68
2019-05-16T14:28:19.161Z,16.60
2019-05-16T14:30:50.907Z,16.58
2019-05-16T14:33:22.687Z,16.59
2019-05-16T14:35:56.392Z,16.52
2019-05-16T14:38:27.805Z,16.34
2019-05-16T14:41:00.516Z,16.56
2019-05-16T14:43:32.247Z,16.59
2019-05-16T14:46:07.050Z,16.63
2019-05-16T14:48:37.284Z,16.63
2019-05-16T14:51:10.238Z,16.54
2019-05-16T14:53:42.033Z,16.51
2019-05-16T14:56:15.201Z,16.45
2019-05-16T14:58:48.761Z,16.21
2019-05-16T15:01:23.388Z,16.05
2019-05-16T15:03:56.511Z,15.95
2019-05-16T15:06:28.794Z,15.87
2019-05-16T15:09:00.556Z,15.79
2019-05-16T15:11:33.780Z,15.64
2019-05-16T15:14:07.060Z,15.57
2019-05-16T15:16:39.167Z,15.59
2019-05-16T15:19:10.947Z,15.65
2019-05-16T15:21:42.702Z,15.63
2019-05-16T15:24:17.523Z,15.57
2019-05-16T15:26:47.997Z,15.50
2019-05-16T15:29:19.761Z,15.48
2019-05-16T15:31:51.527Z,15.49
2019-05-16T15:34:24.152Z,15.36
2019-05-16T15:36:56.474Z,15.35
2019-05-16T15:39:29.259Z,15.25
2019-05-16T15:42:01.970Z,15.21
2019-05-16T15:44:33.818Z,15.16
2019-05-16T15:47:08.118Z,15.17
2019-05-16T15:49:38.836Z,15.16
2019-05-16T15:52:11.509Z,15.12
2019-05-16T15:54:45.013Z,15.08
2019-05-16T15:57:17.629Z,15.03
2019-05-16T15:59:49.509Z,14.98
2019-05-16T16:02:21.271Z,14.99
2019-05-16T16:04:53.033Z,14.95
2019-05-16T16:07:27.078Z,14.95
2019-05-16T16:09:58.389Z,14.98
2019-05-16T16:12:30.193Z,14.93
2019-05-16T16:15:02.244Z,14.94
2019-05-16T16:17:37.687Z,14.90
2019-05-16T16:20:10.350Z,14.83
2019-05-16T16:22:41.768Z,14.85
2019-05-16T16:25:13.544Z,14.79
2019-05-16T16:27:45.332Z,14.82
2019-05-16T16:30:18.674Z,14.78
2019-05-16T16:32:50.964Z,14.76
2019-05-16T16:35:23.085Z,14.66
2019-05-16T16:37:57.311Z,14.63
2019-05-16T16:40:28.835Z,14.63
2019-05-16T16:43:01.339Z,14.61
2019-05-16T16:45:32.913Z,14.61
2019-05-16T16:48:07.319Z,14.58
2019-05-16T16:50:38.161Z,14.56
2019-05-16T16:53:10.166Z,14.56
2019-05-16T16:55:42.154Z,14.49
2019-05-16T16:58:14.207Z,14.49
2019-05-16T17:00:47.743Z,14.49
2019-05-16T17:03:19.712Z,14.47
2019-05-16T17:05:51.706Z,14.45
2019-05-16T17:08:23.546Z,14.44
2019-05-16T17:10:57.573Z,14.41
2019-05-16T17:13:30.411Z,14.42
2019-05-16T17:16:02.271Z,14.37
2019-05-16T17:18:36.744Z,14.37
2019-05-16T17:21:08.212Z,14.34
2019-05-16T17:23:40.374Z,14.27
2019-05-16T17:26:12.048Z,14.21
2019-05-16T17:28:46.788Z,14.24
2019-05-16T17:31:18.828Z,14.27
2019-05-16T17:33:50.641Z,14.21
2019-05-16T17:36:22.388Z,14.17
2019-05-16T17:38:54.247Z,14.17
2019-05-16T17:41:27.337Z,14.11
2019-05-16T17:43:59.563Z,14.10
2019-05-16T17:46:36.854Z,14.03
2019-05-16T17:49:07.458Z,13.96
2019-05-16T17:51:39.478Z,13.95
2019-05-16T17:54:11.243Z,13.90
2019-05-16T17:56:44.232Z,13.85
2019-05-16T17:59:17.125Z,13.86
2019-05-16T18:01:48.910Z,13.83
2019-05-16T18:04:20.675Z,13.87
2019-05-16T18:06:52.422Z,13.83
2019-05-16T18:09:24.250Z,13.79
2019-05-16T18:11:57.438Z,13.77
2019-05-16T18:14:29.292Z,13.74
2019-05-16T18:17:02.564Z,13.71
2019-05-16T18:19:34.325Z,13.68
2019-05-16T18:22:08.170Z,13.69
2019-05-16T18:24:39.728Z,13.69
2019-05-16T18:27:11.478Z,13.67
2019-05-16T18:29:43.244Z,13.64
2019-05-16T18:32:17.068Z,13.57
2019-05-16T18:34:48.528Z,13.57
2019-05-16T18:37:20.284Z,13.56
2019-05-16T18:39:53.312Z,13.56
2019-05-16T18:42:27.483Z,13.55
2019-05-16T18:44:58.792Z,13.54
2019-05-16T18:47:30.758Z,13.52
2019-05-16T18:50:02.531Z,13.52
2019-05-16T18:52:37.448Z,13.51
2019-05-16T18:55:11.170Z,13.49
2019-05-16T18:57:42.830Z,13.46
2019-05-16T19:00:17.801Z,13.48
2019-05-16T19:02:49.996Z,13.44
2019-05-16T19:05:42.419Z,13.42
2019-05-16T19:08:16.196Z,13.43
2019-05-16T19:10:48.440Z,13.45
2019-05-16T19:13:20.098Z,13.43
2019-05-16T19:15:52.007Z,13.40
2019-05-16T19:18:23.760Z,13.38
2019-05-16T19:20:57.274Z,13.33
2019-05-16T19:23:32.569Z,13.28
2019-05-16T19:26:07.310Z,13.17
2019-05-16T19:28:40.155Z,13.06
2019-05-16T19:31:12.972Z,13.05
2019-05-16T19:33:48.557Z,13.05
2019-05-16T19:36:20.297Z,12.99
2019-05-16T19:38:51.937Z,13.02
2019-05-16T19:41:29.511Z,13.03
2019-05-16T19:44:13.499Z,13.01
2019-05-16T19:46:41.685Z,12.99
2019-05-16T19:49:15.519Z,12.96
2019-05-16T19:51:49.080Z,12.91
2019-05-16T19:54:27.010Z,12.92
2019-05-16T19:57:07.148Z,12.89
2019-05-16T19:59:39.238Z,12.91
2019-05-16T20:02:10.657Z,12.91
2019-05-16T20:04:46.935Z,12.89
2019-05-16T20:07:18.275Z,12.93
2019-05-16T20:09:52.691Z,12.88
2019-05-16T20:12:26.188Z,12.92
2019-05-16T20:15:08.228Z,12.91
2019-05-16T20:17:50.945Z,12.87
2019-05-16T20:20:12.547Z,12.82
2019-05-16T20:22:49.097Z,12.80
2019-05-16T20:25:27.160Z,12.83
2019-05-16T20:28:03.753Z,12.86
2019-05-16T20:30:37.139Z,12.85
2019-05-16T20:33:17.885Z,12.82
2019-05-16T20:35:53.234Z,12.83
2019-05-16T20:38:27.546Z,12.82
2019-05-16T20:41:04.118Z,12.79
2019-05-16T20:43:36.907Z,12.76
2019-05-16T20:46:09.719Z,12.74
2019-05-16T20:48:49.314Z,12.72
2019-05-16T20:51:21.083Z,12.67
2019-05-16T20:53:52.822Z,12.69
2019-05-16T20:56:26.546Z,12.70
2019-05-16T20:59:02.573Z,12.70
2019-05-16T21:01:35.894Z,12.70
2019-05-16T21:04:11.393Z,12.76
2019-05-16T21:07:00.017Z,12.75
2019-05-16T21:09:18.413Z,12.78
2019-05-16T21:11:50.238Z,12.73
2019-05-16T21:14:26.928Z,12.73
2019-05-16T21:17:03.879Z,12.74
2019-05-16T21:19:40.089Z,12.73
2019-05-16T21:22:16.277Z,12.72
2019-05-16T21:24:57.142Z,12.71
2019-05-16T21:27:38.005Z,12.70
2019-05-16T21:30:10.655Z,12.69
2019-05-16T21:32:56.535Z,12.64
2019-05-16T21:35:31.808Z,12.62
2019-05-16T21:38:08.760Z,12.58
2019-05-16T21:40:41.424Z,12.59
2019-05-16T21:43:16.834Z,12.58
2019-05-16T21:45:51.699Z,12.57
2019-05-16T21:48:27.453Z,12.56
2019-05-16T21:50:58.139Z,12.50
2019-05-16T21:53:30.153Z,12.47
2019-05-16T21:56:01.997Z,12.44
2019-05-16T21:58:33.745Z,12.40
2019-05-16T22:01:14.116Z,12.41
2019-05-16T22:03:48.644Z,12.38
2019-05-16T22:06:20.416Z,12.39
2019-05-16T22:08:52.499Z,12.38
2019-05-16T22:11:26.280Z,12.38
2019-05-16T22:13:59.360Z,12.37
2019-05-16T22:16:31.774Z,12.38
2019-05-16T22:19:03.426Z,12.42
2019-05-16T22:21:35.842Z,12.44
2019-05-16T22:24:07.648Z,12.45
2019-05-16T22:26:39.366Z,12.47
2019-05-16T22:29:11.115Z,12.48
2019-05-16T22:31:44.366Z,12.48
2019-05-16T22:34:16.935Z,12.50
2019-05-16T22:36:49.407Z,12.49
2019-05-16T22:39:21.220Z,12.50
2019-05-16T22:41:52.974Z,12.49
2019-05-16T22:44:26.950Z,12.49
2019-05-16T22:47:00.034Z,12.48
2019-05-16T22:49:31.885Z,12.50
2019-05-16T22:52:03.626Z,12.51
2019-05-16T22:54:37.109Z,12.52
2019-05-16T22:57:09.071Z,12.50
2019-05-16T22:59:40.841Z,12.47
2019-05-16T23:02:13.324Z,12.52
2019-05-16T23:04:47.311Z,12.48
2019-05-16T23:07:22.507Z,12.49
2019-05-16T23:09:56.298Z,12.50
2019-05-16T23:12:29.421Z,12.49
2019-05-16T23:15:01.159Z,12.48
2019-05-16T23:17:32.921Z,12.49
2019-05-16T23:20:06.354Z,12.46
2019-05-16T23:22:38.188Z,12.49
2019-05-16T23:25:10.694Z,12.50
2019-05-16T23:27:42.439Z,12.47
2019-05-16T23:30:16.469Z,12.49
2019-05-16T23:32:48.719Z,12.49
2019-05-16T23:35:20.472Z,12.48
2019-05-16T23:37:52.214Z,12.51
2019-05-16T23:40:23.961Z,12.50
2019-05-16T23:42:56.943Z,12.46
2019-05-16T23:45:28.730Z,12.44
2019-05-16T23:48:00.477Z,12.43
2019-05-16T23:50:32.227Z,12.38
2019-05-16T23:53:07.250Z,12.37
2019-05-16T23:55:42.029Z,12.30
2019-05-16T23:58:13.682Z,12.28
